sensor_id;sensor_type;location;lat;lon;timestamp;P1;durP1;ratioP1;P2;durP2;ratioP2
38085;SDS011;23896;50.678;10.924;2024-03-23T00:54:38;14.43;;;10.25;;
38085;SDS011;23896;50.678;10.924;2024-03-23T00:57:05;12.40;;;10.05;;
38085;SDS011;23896;50.678;10.924;2024-03-23T00:59:32;14.10;;;10.68;;
38085;SDS011;23896;50.678;10.924;2024-03-23T01:02:00;15.43;;;10.55;;
38085;SDS011;23896;50.678;10.924;2024-03-23T01:04:27;16.83;;;12.82;;
38085;SDS011;23896;50.678;10.924;2024-03-23T01:06:56;27.58;;;18.77;;
38085;SDS011;23896;50.678;10.924;2024-03-23T01:09:23;31.85;;;20.35;;
38085;SDS011;23896;50.678;10.924;2024-03-23T01:11:49;23.40;;;17.40;;
38085;SDS011;23896;50.678;10.924;2024-03-23T01:14:16;21.00;;;15.48;;
38085;SDS011;23896;50.678;10.924;2024-03-23T01:16:43;23.08;;;15.25;;
38085;SDS011;23896;50.678;10.924;2024-03-23T01:19:10;18.58;;;14.93;;
38085;SDS011;23896;50.678;10.924;2024-03-23T01:21:37;21.85;;;15.65;;
38085;SDS011;23896;50.678;10.924;2024-03-23T01:24:04;24.30;;;16.23;;
38085;SDS011;23896;50.678;10.924;2024-03-23T01:26:32;25.42;;;17.92;;
38085;SDS011;23896;50.678;10.924;2024-03-23T01:28:59;29.27;;;18.45;;
38085;SDS011;23896;50.678;10.924;2024-03-23T01:31:26;27.33;;;17.52;;
38085;SDS011;23896;50.678;10.924;2024-03-23T01:33:52;26.25;;;21.45;;
38085;SDS011;23896;50.678;10.924;2024-03-23T01:36:20;29.00;;;18.90;;
38085;SDS011;23896;50.678;10.924;2024-03-23T01:38:48;25.85;;;17.42;;
38085;SDS011;23896;50.678;10.924;2024-03-23T01:41:18;21.42;;;16.77;;
38085;SDS011;23896;50.678;10.924;2024-03-23T01:43:46;23.48;;;16.33;;
38085;SDS011;23896;50.678;10.924;2024-03-23T01:46:13;21.90;;;15.88;;
38085;SDS011;23896;50.678;10.924;2024-03-23T01:48:40;21.50;;;15.30;;
38085;SDS011;23896;50.678;10.924;2024-03-23T01:51:07;22.55;;;16.55;;
38085;SDS011;23896;50.678;10.924;2024-03-23T01:53:34;22.23;;;15.35;;
38085;SDS011;23896;50.678;10.924;2024-03-23T01:59:06;23.70;;;15.43;;
38085;SDS011;23896;50.678;10.924;2024-03-23T02:01:36;18.80;;;13.50;;
38085;SDS011;23896;50.678;10.924;2024-03-23T02:04:03;18.35;;;12.98;;
38085;SDS011;23896;50.678;10.924;2024-03-23T02:06:42;20.20;;;12.52;;
38085;SDS011;23896;50.678;10.924;2024-03-23T02:09:10;15.82;;;11.82;;
38085;SDS011;23896;50.678;10.924;2024-03-23T02:11:37;17.65;;;11.93;;
38085;SDS011;23896;50.678;10.924;2024-03-23T02:14:04;20.55;;;12.18;;
38085;SDS011;23896;50.678;10.924;2024-03-23T02:25:45;22.63;;;13.87;;
38085;SDS011;23896;50.678;10.924;2024-03-23T02:28:15;22.08;;;16.17;;
38085;SDS011;23896;50.678;10.924;2024-03-23T02:30:43;20.63;;;15.60;;
38085;SDS011;23896;50.678;10.924;2024-03-23T02:54:55;18.17;;;12.32;;
38085;SDS011;23896;50.678;10.924;2024-03-23T02:57:22;17.23;;;11.45;;
38085;SDS011;23896;50.678;10.924;2024-03-23T02:59:48;16.25;;;12.90;;
38085;SDS011;23896;50.678;10.924;2024-03-23T03:02:15;15.07;;;12.00;;
38085;SDS011;23896;50.678;10.924;2024-03-23T03:20:01;13.50;;;10.45;;
38085;SDS011;23896;50.678;10.924;2024-03-23T03:22:28;14.40;;;11.52;;
38085;SDS011;23896;50.678;10.924;2024-03-23T03:24:55;14.57;;;10.88;;
38085;SDS011;23896;50.678;10.924;2024-03-23T03:27:22;14.27;;;10.00;;
38085;SDS011;23896;50.678;10.924;2024-03-23T03:36:09;12.43;;;9.70;;
38085;SDS011;23896;50.678;10.924;2024-03-23T03:38:36;11.05;;;8.88;;
38085;SDS011;23896;50.678;10.924;2024-03-23T03:41:05;17.20;;;9.30;;
38085;SDS011;23896;50.678;10.924;2024-03-23T03:43:33;15.13;;;9.40;;
38085;SDS011;23896;50.678;10.924;2024-03-23T03:46:00;12.82;;;10.30;;
38085;SDS011;23896;50.678;10.924;2024-03-23T03:48:28;13.13;;;9.52;;
38085;SDS011;23896;50.678;10.924;2024-03-23T03:50:55;14.48;;;9.38;;
38085;SDS011;23896;50.678;10.924;2024-03-23T03:53:22;11.73;;;9.38;;
38085;SDS011;23896;50.678;10.924;2024-03-23T03:55:48;12.65;;;9.77;;
38085;SDS011;23896;50.678;10.924;2024-03-23T04:04:23;12.10;;;9.87;;
38085;SDS011;23896;50.678;10.924;2024-03-23T04:06:57;17.25;;;10.85;;
38085;SDS011;23896;50.678;10.924;2024-03-23T04:09:25;14.85;;;10.73;;
38085;SDS011;23896;50.678;10.924;2024-03-23T04:11:52;20.67;;;12.40;;
38085;SDS011;23896;50.678;10.924;2024-03-23T04:14:19;17.40;;;12.05;;
38085;SDS011;23896;50.678;10.924;2024-03-23T04:16:47;15.20;;;11.68;;
38085;SDS011;23896;50.678;10.924;2024-03-23T04:22:20;20.97;;;11.57;;
38085;SDS011;23896;50.678;10.924;2024-03-23T04:24:47;17.80;;;11.95;;
38085;SDS011;23896;50.678;10.924;2024-03-23T04:27:14;14.20;;;10.52;;
38085;SDS011;23896;50.678;10.924;2024-03-23T04:51:07;23.43;;;15.17;;
38085;SDS011;23896;50.678;10.924;2024-03-23T04:53:34;21.13;;;16.00;;
38085;SDS011;23896;50.678;10.924;2024-03-23T04:56:01;18.88;;;15.48;;
38085;SDS011;23896;50.678;10.924;2024-03-23T04:58:32;21.58;;;14.88;;
38085;SDS011;23896;50.678;10.924;2024-03-23T05:01:02;18.75;;;14.55;;
38085;SDS011;23896;50.678;10.924;2024-03-23T05:03:30;21.65;;;14.73;;
38085;SDS011;23896;50.678;10.924;2024-03-23T05:05:58;20.38;;;13.75;;
38085;SDS011;23896;50.678;10.924;2024-03-23T05:20:43;23.97;;;16.37;;
38085;SDS011;23896;50.678;10.924;2024-03-23T05:23:11;22.80;;;16.70;;
38085;SDS011;23896;50.678;10.924;2024-03-23T05:25:38;21.73;;;16.85;;
38085;SDS011;23896;50.678;10.924;2024-03-23T05:31:09;21.83;;;15.93;;
38085;SDS011;23896;50.678;10.924;2024-03-23T05:33:36;25.58;;;18.27;;
38085;SDS011;23896;50.678;10.924;2024-03-23T05:36:07;18.50;;;14.48;;
38085;SDS011;23896;50.678;10.924;2024-03-23T05:38:37;19.60;;;12.95;;
38085;SDS011;23896;50.678;10.924;2024-03-23T05:44:07;17.60;;;12.80;;
38085;SDS011;23896;50.678;10.924;2024-03-23T05:46:34;19.15;;;13.43;;
38085;SDS011;23896;50.678;10.924;2024-03-23T05:49:01;14.52;;;12.45;;
38085;SDS011;23896;50.678;10.924;2024-03-23T05:54:32;17.75;;;12.40;;
38085;SDS011;23896;50.678;10.924;2024-03-23T05:56:59;19.08;;;12.95;;
38085;SDS011;23896;50.678;10.924;2024-03-23T05:59:34;16.63;;;12.70;;
38085;SDS011;23896;50.678;10.924;2024-03-23T06:02:01;15.40;;;11.77;;
38085;SDS011;23896;50.678;10.924;2024-03-23T06:04:29;17.05;;;13.60;;
38085;SDS011;23896;50.678;10.924;2024-03-23T06:06:56;14.15;;;12.60;;
38085;SDS011;23896;50.678;10.924;2024-03-23T06:09:29;15.85;;;13.02;;
38085;SDS011;23896;50.678;10.924;2024-03-23T06:12:00;15.63;;;13.45;;
38085;SDS011;23896;50.678;10.924;2024-03-23T06:14:27;17.05;;;12.85;;
38085;SDS011;23896;50.678;10.924;2024-03-23T06:16:54;16.23;;;13.48;;
38085;SDS011;23896;50.678;10.924;2024-03-23T06:19:21;15.20;;;13.02;;
38085;SDS011;23896;50.678;10.924;2024-03-23T06:21:49;15.68;;;13.68;;
38085;SDS011;23896;50.678;10.924;2024-03-23T06:24:16;20.05;;;13.98;;
38085;SDS011;23896;50.678;10.924;2024-03-23T06:26:44;18.08;;;13.93;;
38085;SDS011;23896;50.678;10.924;2024-03-23T06:29:11;17.70;;;13.43;;
38085;SDS011;23896;50.678;10.924;2024-03-23T06:31:38;15.93;;;13.45;;
38085;SDS011;23896;50.678;10.924;2024-03-23T06:34:06;18.92;;;15.13;;
38085;SDS011;23896;50.678;10.924;2024-03-23T06:36:33;19.25;;;15.13;;
38085;SDS011;23896;50.678;10.924;2024-03-23T06:39:00;16.50;;;14.00;;
38085;SDS011;23896;50.678;10.924;2024-03-23T06:41:35;20.33;;;14.98;;
38085;SDS011;23896;50.678;10.924;2024-03-23T06:44:03;21.15;;;14.80;;
38085;SDS011;23896;50.678;10.924;2024-03-23T06:46:29;18.27;;;13.25;;
38085;SDS011;23896;50.678;10.924;2024-03-23T06:48:57;13.00;;;10.80;;
38085;SDS011;23896;50.678;10.924;2024-03-23T06:51:26;11.60;;;8.65;;
38085;SDS011;23896;50.678;10.924;2024-03-23T06:53:53;12.75;;;8.45;;
38085;SDS011;23896;50.678;10.924;2024-03-23T06:56:20;8.27;;;6.63;;
38085;SDS011;23896;50.678;10.924;2024-03-23T06:58:46;6.97;;;5.40;;
38085;SDS011;23896;50.678;10.924;2024-03-23T07:01:18;5.10;;;4.22;;
38085;SDS011;23896;50.678;10.924;2024-03-23T07:10:11;2.45;;;1.92;;
38085;SDS011;23896;50.678;10.924;2024-03-23T07:13:01;2.17;;;1.70;;
38085;SDS011;23896;50.678;10.924;2024-03-23T07:47:59;1.02;;;0.90;;
38085;SDS011;23896;50.678;10.924;2024-03-23T07:50:28;0.80;;;0.80;;
38085;SDS011;23896;50.678;10.924;2024-03-23T07:52:55;0.70;;;0.70;;
38085;SDS011;23896;50.678;10.924;2024-03-23T07:55:24;0.90;;;0.90;;
38085;SDS011;23896;50.678;10.924;2024-03-23T07:58:05;0.70;;;0.60;;
38085;SDS011;23896;50.678;10.924;2024-03-23T08:00:46;0.60;;;0.60;;
38085;SDS011;23896;50.678;10.924;2024-03-23T08:03:13;0.60;;;0.60;;
38085;SDS011;23896;50.678;10.924;2024-03-23T08:05:42;0.60;;;0.60;;
38085;SDS011;23896;50.678;10.924;2024-03-23T08:08:16;0.70;;;0.70;;
38085;SDS011;23896;50.678;10.924;2024-03-23T08:13:51;0.60;;;0.60;;
38085;SDS011;23896;50.678;10.924;2024-03-23T08:16:27;0.50;;;0.50;;
38085;SDS011;23896;50.678;10.924;2024-03-23T08:19:20;0.77;;;0.77;;
38085;SDS011;23896;50.678;10.924;2024-03-23T08:24:39;0.60;;;0.60;;
38085;SDS011;23896;50.678;10.924;2024-03-23T08:27:07;1.23;;;0.90;;
38085;SDS011;23896;50.678;10.924;2024-03-23T08:29:38;1.10;;;0.82;;
38085;SDS011;23896;50.678;10.924;2024-03-23T08:42:43;0.60;;;0.50;;
38085;SDS011;23896;50.678;10.924;2024-03-23T08:45:13;0.50;;;0.50;;
38085;SDS011;23896;50.678;10.924;2024-03-23T08:47:40;0.60;;;0.60;;
38085;SDS011;23896;50.678;10.924;2024-03-23T08:55:18;0.93;;;0.90;;
38085;SDS011;23896;50.678;10.924;2024-03-23T08:57:48;0.82;;;0.70;;
38085;SDS011;23896;50.678;10.924;2024-03-23T09:00:15;0.70;;;0.70;;
38085;SDS011;23896;50.678;10.924;2024-03-23T09:02:48;0.60;;;0.60;;
38085;SDS011;23896;50.678;10.924;2024-03-23T09:05:30;0.60;;;0.60;;
38085;SDS011;23896;50.678;10.924;2024-03-23T09:08:02;0.60;;;0.60;;
38085;SDS011;23896;50.678;10.924;2024-03-23T09:10:30;0.63;;;0.63;;
38085;SDS011;23896;50.678;10.924;2024-03-23T09:12:58;0.40;;;0.40;;
38085;SDS011;23896;50.678;10.924;2024-03-23T09:15:24;0.60;;;0.60;;
38085;SDS011;23896;50.678;10.924;2024-03-23T09:17:53;0.50;;;0.50;;
38085;SDS011;23896;50.678;10.924;2024-03-23T09:20:20;0.60;;;0.60;;
38085;SDS011;23896;50.678;10.924;2024-03-23T09:22:50;0.60;;;0.60;;
38085;SDS011;23896;50.678;10.924;2024-03-23T14:16:03;2.42;;;1.92;;
38085;SDS011;23896;50.678;10.924;2024-03-23T14:18:38;3.70;;;1.63;;
38085;SDS011;23896;50.678;10.924;2024-03-23T15:51:14;3.70;;;1.50;;
38085;SDS011;23896;50.678;10.924;2024-03-23T15:54:18;2.25;;;0.98;;
38085;SDS011;23896;50.678;10.924;2024-03-23T15:57:37;1.65;;;1.10;;
38085;SDS011;23896;50.678;10.924;2024-03-23T16:16:49;2.35;;;1.50;;
38085;SDS011;23896;50.678;10.924;2024-03-23T16:19:39;1.30;;;1.00;;
38085;SDS011;23896;50.678;10.924;2024-03-23T16:29:08;1.48;;;1.30;;
